Willisville, Indiana
Current Conditions -  °F | °C
As of 10:35 AM on Tuesday 21 Oct 2014 (Local Time) from KDCY Reporting Station
Overcast Overcast  
Wind Chill: 14°   Ceiling: 5000
Heat Index: 14°   Visibility: 10mi
Dew Point:   Wind: 10mph
Humidity: 69%   Direction: 350°N
Pressure: 30.1"   Gusts: 16mph
Location:  38.4723°N, 87.3105°W
Report Text: KDCY 211535Z AUTO 35009G14KT 10SM SCT025 OVC050 14/08 A3010 RMK AO2 T01360081
Loading
Personal Weather Stations






























Interactive Weather Map
Tropical Storm Tracking
New forecast layout! Learn more

10-Day Weather Forecast

Advertisements
Track Severe Weather on mobile